Hazelgreen, West Virginia
Current Conditions -  °F | °C
As of 7:53 AM on Saturday 20 Dec 2014 (Local Time) from KPKB Reporting Station
Overcast Overcast  
Wind Chill: 30°   Ceiling: 1900
Heat Index: 30°   Visibility: 10mi
Dew Point: 23°   Wind: 3mph
Humidity: 75%   Direction: 80°E
Pressure: 30.3"   Gusts: NA
Location:  39.1565°N, 81.0304°W
Report Text: KPKB 201253Z 08003KT 10SM OVC019 M01/M05 A3030 RMK AO2 SLP267 T10111050
Loading
Personal Weather Stations






























Interactive Weather Map New forecast layout! Learn more

10-Day Weather Forecast

Advertisements
Track Severe Weather on mobile